Time;durP1;ratioP1;P1;durP2;ratioP2;P2;SDS_P1;SDS_P2;PMS_P1;PMS_P2;Temp;Humidity;BMP_temperature;BMP_pressure;BME280_temperature;BME280_humidity;BME280_pressure;Samples;Min_cycle;Max_cycle;Signal;HPM_P1;HPM_P2
2023/03/18 00:01:14;;;;;;;7.57;5.13;;;8.40;62.00;;;;;;5066249;28;20029;-65
2023/03/18 00:03:40;;;;;;;8.80;5.18;;;8.40;62.80;;;;;;5063179;28;20045;-64
2023/03/18 00:06:10;;;;;;;9.55;5.30;;;8.40;62.10;;;;;;5063560;28;20052;-64
2023/03/18 00:08:38;;;;;;;7.50;4.90;;;8.30;62.30;;;;;;5061803;28;20024;-64
2023/03/18 00:11:04;;;;;;;10.05;4.82;;;8.30;62.10;;;;;;5064951;28;20522;-65
2023/03/18 00:13:32;;;;;;;10.85;5.30;;;8.30;62.20;;;;;;5057663;28;20029;-64
2023/03/18 00:15:59;;;;;;;10.70;5.35;;;8.30;62.30;;;;;;5068162;28;20033;-64
2023/03/18 00:18:24;;;;;;;8.77;5.25;;;8.30;62.40;;;;;;5059354;28;20112;-64
2023/03/18 00:20:50;;;;;;;8.77;5.40;;;8.20;62.40;;;;;;5068844;28;20039;-64
2023/03/18 00:23:16;;;;;;;10.13;5.50;;;8.20;62.50;;;;;;5063446;28;20040;-64
2023/03/18 00:25:45;;;;;;;9.27;5.35;;;8.20;62.50;;;;;;5065720;28;20045;-64
2023/03/18 00:28:10;;;;;;;9.82;4.72;;;8.20;62.40;;;;;;5058403;28;20035;-63
2023/03/18 00:30:40;;;;;;;9.43;5.28;;;8.20;62.40;;;;;;5056769;28;20049;-64
2023/03/18 00:33:07;;;;;;;8.50;5.20;;;8.10;62.60;;;;;;5059292;28;20135;-64
2023/03/18 00:35:35;;;;;;;9.35;5.20;;;8.10;62.40;;;;;;5069203;28;20017;-64
2023/03/18 00:38:02;;;;;;;7.88;4.80;;;8.10;62.40;;;;;;5062272;28;20022;-63
2023/03/18 00:40:41;;;;;;;8.88;4.60;;;8.10;62.50;;;;;;4987612;28;20100;-64
2023/03/18 00:43:09;;;;;;;6.25;4.38;;;8.00;62.60;;;;;;5054967;28;20041;-63
2023/03/18 00:45:39;;;;;;;6.80;3.88;;;8.00;62.60;;;;;;5071423;28;20525;-63
2023/03/18 00:48:10;;;;;;;6.70;4.10;;;8.00;62.80;;;;;;5063094;28;20024;-63
2023/03/18 00:50:36;;;;;;;6.22;4.10;;;8.00;62.60;;;;;;5064199;28;20032;-63
2023/03/18 00:53:02;;;;;;;5.50;4.03;;;8.00;63.30;;;;;;5065456;28;20048;-63
2023/03/18 00:55:28;;;;;;;9.40;5.07;;;7.90;62.70;;;;;;5065638;28;20025;-63
2023/03/18 00:57:54;;;;;;;9.65;4.05;;;7.90;62.90;;;;;;5064069;28;20075;-63
2023/03/18 01:00:20;;;;;;;7.75;4.43;;;7.90;62.90;;;;;;5059373;28;20028;-64
2023/03/18 01:02:48;;;;;;;7.10;4.22;;;7.80;62.80;;;;;;5062005;28;20095;-65
2023/03/18 01:05:15;;;;;;;8.63;4.75;;;7.90;62.90;;;;;;5060364;28;20471;-63
2023/03/18 01:07:41;;;;;;;9.73;5.15;;;7.80;62.90;;;;;;5054691;28;20028;-64
2023/03/18 01:10:08;;;;;;;13.35;5.60;;;7.80;63.00;;;;;;5053298;28;20043;-64
2023/03/18 01:12:33;;;;;;;12.43;5.95;;;7.80;63.00;;;;;;5068225;28;20456;-64
2023/03/18 01:14:59;;;;;;;12.32;5.75;;;7.80;63.00;;;;;;5058413;28;20028;-64
2023/03/18 01:17:25;;;;;;;9.90;5.18;;;7.80;63.00;;;;;;5062624;28;20152;-64
2023/03/18 01:19:51;;;;;;;12.25;5.57;;;7.80;63.00;;;;;;5072370;28;20067;-63
2023/03/18 01:22:17;;;;;;;13.25;5.70;;;7.80;63.20;;;;;;5065588;28;20025;-64
2023/03/18 01:24:43;;;;;;;9.55;4.90;;;7.70;63.20;;;;;;5060571;28;20041;-64
2023/03/18 01:27:09;;;;;;;9.65;5.15;;;7.70;63.30;;;;;;5066005;28;20076;-64
2023/03/18 01:29:35;;;;;;;6.38;3.63;;;7.70;63.40;;;;;;5059593;28;20034;-64
2023/03/18 01:32:01;;;;;;;6.93;4.60;;;7.70;63.50;;;;;;5066089;28;20049;-64
2023/03/18 01:34:27;;;;;;;12.32;4.88;;;7.70;63.60;;;;;;5055926;28;20132;-64
2023/03/18 01:36:54;;;;;;;10.38;4.63;;;7.70;63.50;;;;;;5063732;28;20033;-64
2023/03/18 01:39:27;;;;;;;11.20;4.72;;;7.70;63.50;;;;;;5065870;28;20020;-64
2023/03/18 01:41:55;;;;;;;6.45;4.43;;;7.70;63.40;;;;;;5056621;28;20494;-64
2023/03/18 01:44:23;;;;;;;8.82;4.00;;;7.70;63.60;;;;;;5068760;28;20101;-64
2023/03/18 01:46:51;;;;;;;6.72;3.78;;;7.60;63.70;;;;;;5062145;28;20076;-64
2023/03/18 01:49:33;;;;;;;6.40;4.18;;;7.60;63.70;;;;;;5065289;28;20016;-64
2023/03/18 01:52:02;;;;;;;8.98;4.22;;;7.70;63.90;;;;;;5059252;28;20056;-65
2023/03/18 01:54:31;;;;;;;9.30;4.28;;;7.60;63.50;;;;;;5070206;28;20132;-64
2023/03/18 01:56:57;;;;;;;6.60;4.20;;;7.60;63.50;;;;;;5066404;28;20033;-64
2023/03/18 01:59:25;;;;;;;8.63;4.30;;;7.60;63.40;;;;;;5064704;28;20025;-64
2023/03/18 02:02:05;;;;;;;6.55;4.28;;;7.60;63.40;;;;;;5064391;28;20033;-64
2023/03/18 02:04:36;;;;;;;6.57;4.45;;;7.60;63.80;;;;;;5063496;28;20488;-64
2023/03/18 02:07:01;;;;;;;11.68;4.70;;;7.60;63.50;;;;;;5074585;28;20029;-64
2023/03/18 02:09:28;;;;;;;9.35;4.32;;;7.50;63.30;;;;;;5064869;28;20025;-65
2023/03/18 02:11:54;;;;;;;8.23;4.43;;;7.50;63.40;;;;;;5063961;28;20021;-66
2023/03/18 02:14:22;;;;;;;7.32;4.25;;;7.50;63.50;;;;;;5060530;28;20040;-64
2023/03/18 02:17:04;;;;;;;5.68;3.88;;;7.40;63.40;;;;;;5065728;28;20085;-65
2023/03/18 02:19:48;;;;;;;6.28;3.83;;;7.40;63.60;;;;;;5062238;28;20036;-62
2023/03/18 02:22:38;;;;;;;6.77;3.37;;;7.40;63.50;;;;;;5068083;28;20033;-63
2023/03/18 02:25:04;;;;;;;4.85;3.35;;;7.40;64.00;;;;;;5067276;28;20102;-65
2023/03/18 02:27:34;;;;;;;8.43;3.47;;;7.30;63.30;;;;;;5066978;28;20029;-65
2023/03/18 02:30:05;;;;;;;6.40;3.50;;;7.40;63.60;;;;;;5075324;28;20021;-63
2023/03/18 02:32:32;;;;;;;5.93;3.35;;;7.30;63.70;;;;;;5070585;28;20021;-63
2023/03/18 02:35:01;;;;;;;5.38;3.65;;;7.30;63.70;;;;;;5060984;28;20100;-63
2023/03/18 02:37:27;;;;;;;4.95;3.10;;;7.30;63.80;;;;;;5070312;28;20032;-64
2023/03/18 02:39:53;;;;;;;5.40;3.63;;;7.20;63.70;;;;;;5062222;28;20144;-63
2023/03/18 02:42:31;;;;;;;9.85;3.55;;;7.30;63.90;;;;;;5070437;28;20095;-65
2023/03/18 02:44:58;;;;;;;8.90;3.35;;;7.20;64.30;;;;;;5059744;28;20048;-64
2023/03/18 02:47:27;;;;;;;6.05;3.25;;;7.20;64.50;;;;;;5053402;28;20460;-63
2023/03/18 02:49:53;;;;;;;5.93;3.25;;;7.20;64.00;;;;;;5066413;28;20024;-63
2023/03/18 02:52:19;;;;;;;6.70;3.63;;;7.20;64.10;;;;;;5064947;28;20031;-63
2023/03/18 02:54:45;;;;;;;6.13;3.08;;;7.20;64.00;;;;;;5069772;28;20028;-63
2023/03/18 02:57:10;;;;;;;6.55;3.30;;;7.20;64.00;;;;;;5068556;28;20029;-65
2023/03/18 02:59:36;;;;;;;4.95;3.33;;;7.20;64.30;;;;;;5065336;28;20050;-64
2023/03/18 03:02:02;;;;;;;5.70;3.20;;;7.20;64.40;;;;;;5064718;28;20463;-63
2023/03/18 03:04:28;;;;;;;4.82;2.75;;;7.20;64.30;;;;;;5062576;28;20056;-64
2023/03/18 03:06:55;;;;;;;4.22;2.55;;;7.20;64.30;;;;;;5067335;28;20036;-63
2023/03/18 03:09:22;;;;;;;4.05;2.80;;;7.10;64.10;;;;;;5071726;28;20036;-63
2023/03/18 03:11:48;;;;;;;4.28;2.80;;;7.20;64.10;;;;;;5048883;28;20054;-64
2023/03/18 03:14:15;;;;;;;5.57;2.83;;;7.10;64.90;;;;;;5070822;28;20036;-62
2023/03/18 03:16:42;;;;;;;4.63;3.20;;;7.10;64.30;;;;;;5061713;28;20375;-62
2023/03/18 03:19:08;;;;;;;4.75;3.10;;;7.20;64.40;;;;;;5066998;28;20033;-64
2023/03/18 03:21:34;;;;;;;9.60;3.80;;;7.10;64.50;;;;;;5059947;28;20051;-64
2023/03/18 03:24:05;;;;;;;10.50;4.55;;;7.10;65.10;;;;;;5058920;28;20037;-65
2023/03/18 03:26:31;;;;;;;16.17;6.68;;;7.10;64.50;;;;;;5065796;28;20022;-63
2023/03/18 03:28:57;;;;;;;15.90;6.78;;;7.10;64.30;;;;;;5065434;28;20090;-63
2023/03/18 03:31:23;;;;;;;11.82;5.57;;;7.10;64.50;;;;;;5071711;28;20027;-63
2023/03/18 03:33:49;;;;;;;15.98;5.70;;;7.10;64.90;;;;;;5068192;28;20085;-63
2023/03/18 03:36:16;;;;;;;10.15;5.40;;;7.10;65.10;;;;;;5066499;28;20047;-64
2023/03/18 03:38:42;;;;;;;9.95;5.00;;;7.00;65.10;;;;;;5064890;28;20025;-64
2023/03/18 03:41:10;;;;;;;11.77;5.20;;;7.00;65.10;;;;;;5060511;28;20064;-63
2023/03/18 03:43:37;;;;;;;8.15;4.70;;;7.00;65.10;;;;;;5064548;28;20086;-63
2023/03/18 03:46:04;;;;;;;15.73;4.65;;;7.00;65.10;;;;;;5068957;28;20053;-63
2023/03/18 03:48:30;;;;;;;11.02;5.03;;;7.00;65.20;;;;;;5066740;28;20086;-63
2023/03/18 03:50:56;;;;;;;8.80;4.40;;;7.00;65.40;;;;;;5066272;28;20032;-63
2023/03/18 03:53:23;;;;;;;8.95;4.75;;;7.00;65.40;;;;;;5064262;28;20103;-63
2023/03/18 03:55:49;;;;;;;8.57;4.88;;;7.00;65.60;;;;;;5058182;28;20450;-63
2023/03/18 03:58:14;;;;;;;16.15;5.15;;;7.10;65.60;;;;;;5068351;28;20086;-63
2023/03/18 04:00:40;;;;;;;8.93;4.20;;;7.10;65.70;;;;;;5065468;28;20037;-63
2023/03/18 04:03:06;;;;;;;5.90;4.15;;;7.10;65.70;;;;;;5060584;28;20435;-63
2023/03/18 04:05:31;;;;;;;8.98;5.20;;;7.10;65.70;;;;;;5060976;28;20063;-63
2023/03/18 04:07:58;;;;;;;7.65;4.20;;;7.10;65.60;;;;;;5061969;28;20040;-63
2023/03/18 04:10:25;;;;;;;10.23;5.07;;;7.10;65.60;;;;;;5067881;28;20114;-63
2023/03/18 04:12:51;;;;;;;9.15;4.70;;;7.10;65.50;;;;;;5056925;28;20045;-63
2023/03/18 04:15:18;;;;;;;11.45;4.78;;;7.10;65.70;;;;;;5064183;28;20025;-64
2023/03/18 04:17:44;;;;;;;25.60;5.32;;;7.10;65.50;;;;;;5067610;28;20694;-64
2023/03/18 04:20:12;;;;;;;10.55;4.65;;;7.00;65.50;;;;;;5080746;28;20056;-63
2023/03/18 04:22:38;;;;;;;8.65;4.40;;;7.00;65.70;;;;;;5060602;28;20032;-64
2023/03/18 04:25:04;;;;;;;8.13;4.78;;;7.00;65.60;;;;;;5067283;28;20044;-62
2023/03/18 04:27:31;;;;;;;8.38;4.43;;;7.00;65.60;;;;;;5071252;28;20028;-64
2023/03/18 04:29:56;;;;;;;6.95;4.60;;;7.00;65.60;;;;;;5063306;28;20032;-63
2023/03/18 04:32:22;;;;;;;9.38;4.07;;;7.00;65.50;;;;;;5060235;28;20021;-63
2023/03/18 04:34:48;;;;;;;8.35;3.55;;;7.00;65.70;;;;;;5065825;28;20076;-64
2023/03/18 04:37:18;;;;;;;9.90;3.80;;;7.00;65.70;;;;;;5064672;28;20033;-63
2023/03/18 04:39:45;;;;;;;5.68;3.47;;;6.90;65.60;;;;;;5060265;28;20034;-63
2023/03/18 04:42:11;;;;;;;9.10;3.67;;;6.90;65.60;;;;;;5058231;28;20021;-62
2023/03/18 04:44:37;;;;;;;7.93;3.58;;;6.90;65.70;;;;;;5063179;28;20060;-63
2023/03/18 04:47:03;;;;;;;9.50;3.50;;;6.90;65.70;;;;;;5074331;28;20056;-64
2023/03/18 04:49:29;;;;;;;5.55;3.38;;;6.90;65.70;;;;;;5071843;28;20032;-63
2023/03/18 04:51:55;;;;;;;10.30;3.33;;;6.80;65.60;;;;;;5067912;28;20028;-63
2023/03/18 04:54:20;;;;;;;5.88;3.97;;;6.80;65.80;;;;;;5057703;28;20120;-63
2023/03/18 04:56:46;;;;;;;7.75;3.78;;;6.80;65.90;;;;;;5067248;28;20154;-64
2023/03/18 04:59:12;;;;;;;5.97;3.45;;;6.80;65.90;;;;;;5065583;28;20032;-64
2023/03/18 05:01:38;;;;;;;4.88;3.53;;;6.70;65.90;;;;;;5067844;28;20043;-63
2023/03/18 05:04:04;;;;;;;5.35;3.83;;;6.70;65.80;;;;;;5059132;28;20033;-64
2023/03/18 05:06:32;;;;;;;6.18;3.20;;;6.70;65.70;;;;;;5057674;28;20025;-63
2023/03/18 05:08:59;;;;;;;5.15;3.60;;;6.80;65.80;;;;;;5075858;28;20566;-63
2023/03/18 05:11:26;;;;;;;4.38;3.10;;;6.70;65.90;;;;;;5052865;28;20051;-63
2023/03/18 05:13:51;;;;;;;4.72;3.22;;;6.70;65.90;;;;;;5062549;28;20107;-65
2023/03/18 05:16:17;;;;;;;12.52;3.92;;;6.70;66.00;;;;;;5063488;28;20025;-64
2023/03/18 05:18:45;;;;;;;9.07;3.58;;;6.60;66.00;;;;;;5053571;28;20462;-63
2023/03/18 05:21:11;;;;;;;13.20;4.10;;;6.60;66.00;;;;;;5059386;28;20106;-63
2023/03/18 05:23:37;;;;;;;6.82;3.05;;;6.60;66.10;;;;;;5058356;28;20040;-64
2023/03/18 05:26:04;;;;;;;7.75;3.72;;;6.60;66.20;;;;;;5065166;28;20549;-63
2023/03/18 05:28:31;;;;;;;8.35;3.35;;;6.60;66.20;;;;;;5067111;28;20060;-63
2023/03/18 05:30:57;;;;;;;4.32;3.20;;;6.60;66.20;;;;;;5073545;28;20040;-64
2023/03/18 05:33:23;;;;;;;7.50;3.42;;;6.60;66.20;;;;;;5068733;28;20049;-62
2023/03/18 05:35:48;;;;;;;8.75;2.97;;;6.60;66.10;;;;;;5063250;28;20017;-63
2023/03/18 05:38:14;;;;;;;5.90;2.70;;;6.60;66.20;;;;;;5070896;28;20024;-66
2023/03/18 05:40:39;;;;;;;4.18;3.13;;;6.60;66.20;;;;;;5063243;28;20021;-63
2023/03/18 05:43:06;;;;;;;7.30;2.45;;;6.60;66.20;;;;;;5059896;28;20431;-63
2023/03/18 05:45:32;;;;;;;3.47;2.92;;;6.60;66.20;;;;;;5065708;28;20032;-63
2023/03/18 05:47:58;;;;;;;9.00;2.97;;;6.60;66.30;;;;;;5065650;28;20025;-63
2023/03/18 05:50:28;;;;;;;6.88;3.60;;;6.60;66.20;;;;;;5065712;28;20031;-63
2023/03/18 05:52:54;;;;;;;8.07;3.05;;;6.60;66.40;;;;;;5067156;28;20032;-63
2023/03/18 05:55:20;;;;;;;6.70;3.22;;;6.60;66.30;;;;;;5063513;28;20037;-64
2023/03/18 05:57:47;;;;;;;5.32;3.00;;;6.60;66.30;;;;;;5065990;28;20029;-63
2023/03/18 06:00:14;;;;;;;4.65;2.92;;;6.60;66.30;;;;;;5067777;28;20027;-63
2023/03/18 06:02:40;;;;;;;9.32;3.15;;;6.60;66.30;;;;;;5069632;28;20176;-63
2023/03/18 06:05:07;;;;;;;6.22;2.95;;;6.60;66.30;;;;;;5057060;28;20029;-64
2023/03/18 06:07:33;;;;;;;10.57;3.28;;;6.60;66.40;;;;;;5072022;28;20017;-64
2023/03/18 06:09:59;;;;;;;5.28;2.92;;;6.60;66.50;;;;;;5065656;28;20028;-63
2023/03/18 06:12:26;;;;;;;7.20;2.90;;;6.60;66.50;;;;;;5064059;28;20053;-62
2023/03/18 06:14:53;;;;;;;10.07;3.45;;;6.60;66.60;;;;;;5059556;28;20025;-63
2023/03/18 06:17:19;;;;;;;5.53;2.78;;;6.70;66.70;;;;;;5066721;28;20051;-65
2023/03/18 06:19:45;;;;;;;4.63;2.80;;;6.70;66.70;;;;;;5067614;28;20021;-63
2023/03/18 06:22:11;;;;;;;5.07;2.80;;;6.70;66.70;;;;;;5071220;28;20072;-63
2023/03/18 06:24:37;;;;;;;3.45;2.55;;;6.70;66.70;;;;;;5061786;28;20034;-63
2023/03/18 06:27:04;;;;;;;6.90;3.00;;;6.80;66.80;;;;;;5065127;28;20467;-62
2023/03/18 06:29:30;;;;;;;4.88;3.10;;;6.80;66.90;;;;;;5069804;28;20021;-63
2023/03/18 06:31:56;;;;;;;5.57;2.83;;;6.90;66.90;;;;;;5068678;28;20059;-63
2023/03/18 06:34:22;;;;;;;6.10;3.30;;;6.90;66.90;;;;;;5067459;28;20716;-65
2023/03/18 06:36:49;;;;;;;6.68;3.35;;;6.90;66.90;;;;;;5066038;28;20625;-64
2023/03/18 06:39:16;;;;;;;7.60;3.63;;;7.00;67.00;;;;;;5064637;28;20028;-63
2023/03/18 06:41:42;;;;;;;7.60;3.65;;;7.00;67.00;;;;;;5063982;28;20110;-63
2023/03/18 06:44:08;;;;;;;9.63;4.53;;;7.10;67.10;;;;;;5068883;28;20371;-64
2023/03/18 06:46:34;;;;;;;6.18;3.88;;;7.20;67.20;;;;;;5067692;28;21204;-64
2023/03/18 06:49:00;;;;;;;7.57;4.40;;;7.30;67.20;;;;;;5063622;28;20086;-64
2023/03/18 06:51:26;;;;;;;9.10;5.22;;;7.40;67.80;;;;;;5071836;28;20031;-64
2023/03/18 06:53:52;;;;;;;8.25;4.57;;;7.40;67.00;;;;;;5073902;28;20021;-64
2023/03/18 06:56:17;;;;;;;7.05;4.57;;;7.50;66.90;;;;;;5054842;28;20366;-63
2023/03/18 06:58:43;;;;;;;10.70;5.78;;;7.60;66.80;;;;;;5064089;28;20526;-64
2023/03/18 07:01:11;;;;;;;10.07;5.15;;;7.70;66.70;;;;;;5063448;28;20120;-65
2023/03/18 07:03:37;;;;;;;9.23;5.18;;;7.80;66.70;;;;;;5063029;28;20031;-62
2023/03/18 07:06:03;;;;;;;9.05;4.97;;;7.80;66.70;;;;;;5069650;28;20036;-63
2023/03/18 07:08:29;;;;;;;10.75;5.60;;;7.90;66.70;;;;;;5070923;28;20021;-63
2023/03/18 07:10:57;;;;;;;8.48;5.00;;;8.00;66.70;;;;;;5070952;28;20033;-63
2023/03/18 07:13:22;;;;;;;9.45;5.03;;;8.00;66.60;;;;;;5062152;28;20025;-63
2023/03/18 07:15:48;;;;;;;7.82;4.55;;;8.10;66.50;;;;;;5073519;28;20048;-63
2023/03/18 07:18:14;;;;;;;10.25;4.97;;;8.20;66.40;;;;;;5062991;28;20030;-62
2023/03/18 07:20:40;;;;;;;10.27;5.47;;;8.30;66.40;;;;;;5073758;28;20030;-62
2023/03/18 07:23:06;;;;;;;11.57;5.50;;;8.30;66.30;;;;;;5064241;28;20141;-62
2023/03/18 07:25:32;;;;;;;8.68;5.53;;;8.40;66.20;;;;;;5068277;28;20442;-62
2023/03/18 07:28:03;;;;;;;10.52;5.03;;;8.50;66.20;;;;;;5068244;28;20118;-64
2023/03/18 07:30:29;;;;;;;10.73;4.32;;;8.60;66.30;;;;;;5077481;28;20013;-61
2023/03/18 07:32:55;;;;;;;9.82;4.53;;;8.80;66.40;;;;;;5062554;28;20043;-64
2023/03/18 07:35:22;;;;;;;4.82;3.58;;;8.90;66.40;;;;;;5059458;28;20029;-64
2023/03/18 07:37:48;;;;;;;5.60;3.65;;;9.00;66.30;;;;;;5063048;28;20058;-63
2023/03/18 07:40:14;;;;;;;7.53;4.15;;;9.20;66.20;;;;;;5069895;28;20021;-63
2023/03/18 07:42:39;;;;;;;6.28;4.20;;;9.40;66.10;;;;;;5066156;28;20030;-64
2023/03/18 07:45:06;;;;;;;10.38;4.10;;;9.60;66.00;;;;;;5057575;28;20036;-63
2023/03/18 07:47:32;;;;;;;9.00;4.15;;;9.80;65.90;;;;;;5076762;28;20032;-63
2023/03/18 07:49:58;;;;;;;8.18;4.22;;;10.00;65.70;;;;;;5067923;28;20029;-64
2023/03/18 07:52:24;;;;;;;8.88;4.10;;;10.10;65.40;;;;;;5065674;28;20048;-63
2023/03/18 07:54:51;;;;;;;10.98;4.00;;;10.30;65.30;;;;;;5060511;28;20024;-63
2023/03/18 07:57:17;;;;;;;9.85;4.30;;;10.50;65.10;;;;;;5071941;28;20017;-62
2023/03/18 07:59:42;;;;;;;7.07;4.05;;;10.60;64.70;;;;;;5071086;28;20033;-63
2023/03/18 08:02:12;;;;;;;9.23;4.15;;;10.80;64.50;;;;;;5063944;28;20112;-62
2023/03/18 08:04:39;;;;;;;7.20;4.15;;;11.00;64.30;;;;;;5063754;28;20045;-62
2023/03/18 08:07:04;;;;;;;9.23;4.28;;;11.10;64.00;;;;;;5069439;28;20024;-62
2023/03/18 08:09:31;;;;;;;10.93;4.43;;;11.30;63.90;;;;;;5066234;28;20501;-63
2023/03/18 08:11:57;;;;;;;10.52;4.00;;;11.40;63.80;;;;;;5065477;28;20033;-63
2023/03/18 08:14:23;;;;;;;9.75;4.13;;;11.60;63.70;;;;;;5062287;28;20052;-63
2023/03/18 08:16:48;;;;;;;8.20;4.13;;;11.70;63.40;;;;;;5062629;28;20066;-63
2023/03/18 08:19:14;;;;;;;7.15;4.10;;;11.90;63.30;;;;;;5064908;28;20023;-62
2023/03/18 08:21:41;;;;;;;11.45;3.38;;;12.00;62.90;;;;;;5069893;28;20021;-63
2023/03/18 08:24:08;;;;;;;8.38;3.35;;;12.20;62.60;;;;;;5071266;28;20029;-63
2023/03/18 08:26:34;;;;;;;7.80;3.85;;;12.40;62.40;;;;;;5060634;28;20056;-62
2023/03/18 08:29:00;;;;;;;8.80;3.40;;;12.60;62.10;;;;;;5069311;28;20029;-62
2023/03/18 08:31:26;;;;;;;6.85;3.17;;;12.70;61.70;;;;;;5067499;28;20162;-64
2023/03/18 08:33:54;;;;;;;6.95;3.50;;;12.90;61.30;;;;;;5064294;28;20063;-63
2023/03/18 08:36:21;;;;;;;6.65;2.95;;;13.10;61.10;;;;;;5058147;28;20044;-63
2023/03/18 08:38:46;;;;;;;9.10;3.10;;;13.30;60.60;;;;;;5061417;28;20029;-63
2023/03/18 08:41:13;;;;;;;8.00;3.25;;;13.40;60.10;;;;;;5065203;28;20032;-63
2023/03/18 08:43:39;;;;;;;4.32;2.83;;;13.60;59.80;;;;;;5061566;28;20029;-63
2023/03/18 08:46:06;;;;;;;5.70;3.35;;;13.70;59.40;;;;;;5061717;28;20028;-63
2023/03/18 08:48:31;;;;;;;4.75;2.75;;;13.90;59.20;;;;;;5052572;28;20029;-65
2023/03/18 08:50:57;;;;;;;6.40;2.65;;;14.00;59.00;;;;;;5049660;28;20111;-63
2023/03/18 08:53:23;;;;;;;5.57;2.58;;;14.20;58.60;;;;;;5056855;28;20044;-63
2023/03/18 08:55:49;;;;;;;6.18;2.72;;;14.40;58.10;;;;;;5058974;28;20132;-63
2023/03/18 08:58:15;;;;;;;5.10;3.10;;;14.50;57.80;;;;;;5063508;28;20100;-63
2023/03/18 09:00:42;;;;;;;4.68;3.00;;;14.60;57.40;;;;;;5054653;28;20494;-63
2023/03/18 09:03:08;;;;;;;4.40;2.95;;;14.80;57.10;;;;;;5062072;28;20027;-61
2023/03/18 09:05:34;;;;;;;6.18;3.20;;;14.90;56.80;;;;;;5049058;28;20047;-64
2023/03/18 09:08:00;;;;;;;7.63;3.45;;;15.00;56.80;;;;;;5052744;28;20029;-64
2023/03/18 09:10:26;;;;;;;5.28;3.10;;;15.20;56.70;;;;;;5060695;28;20791;-63
2023/03/18 09:12:52;;;;;;;6.28;2.90;;;15.30;56.50;;;;;;5065050;28;20021;-63
2023/03/18 09:15:21;;;;;;;5.35;3.00;;;15.50;56.30;;;;;;5070833;28;20020;-63
2023/03/18 09:17:47;;;;;;;6.93;3.17;;;15.60;56.10;;;;;;5067307;28;20056;-63
2023/03/18 09:20:15;;;;;;;4.70;2.60;;;15.80;56.00;;;;;;5069185;28;20047;-64
2023/03/18 09:22:43;;;;;;;4.95;2.42;;;16.00;55.50;;;;;;5065830;28;20042;-62
2023/03/18 09:25:09;;;;;;;3.20;2.42;;;16.10;55.30;;;;;;5062944;28;20448;-65
2023/03/18 09:27:35;;;;;;;3.42;2.60;;;16.30;55.10;;;;;;5055028;28;20039;-64
2023/03/18 09:30:03;;;;;;;9.80;2.53;;;16.50;54.80;;;;;;5059429;28;20028;-63
2023/03/18 09:32:29;;;;;;;4.25;2.05;;;16.70;54.40;;;;;;5062004;28;20029;-64
2023/03/18 09:34:55;;;;;;;3.58;2.08;;;16.80;54.30;;;;;;5063769;28;20070;-64
2023/03/18 09:37:21;;;;;;;2.92;1.60;;;17.00;53.90;;;;;;5063467;28;20041;-63
2023/03/18 09:39:47;;;;;;;4.47;1.92;;;17.20;53.10;;;;;;4969322;28;20111;-64
2023/03/18 09:42:44;;;;;;;3.22;1.35;;;17.30;52.60;;;;;;5055187;28;20032;-63
2023/03/18 09:45:22;;;;;;;2.95;1.25;;;17.50;51.40;;;;;;5052509;28;20041;-63
2023/03/18 09:48:21;;;;;;;3.58;1.20;;;17.70;50.60;;;;;;5061559;28;20059;-64
2023/03/18 09:50:58;;;;;;;2.88;0.98;;;17.90;49.50;;;;;;5059709;28;20033;-63
2023/03/18 09:53:48;;;;;;;1.98;1.27;;;18.00;49.60;;;;;;5056617;28;20210;-63
2023/03/18 09:56:19;;;;;;;3.08;1.05;;;18.20;49.80;;;;;;5051849;28;20044;-64
2023/03/18 09:58:59;;;;;;;2.20;0.90;;;18.40;47.70;;;;;;5086787;28;20041;-63
2023/03/18 10:01:27;;;;;;;3.03;1.13;;;18.40;48.00;;;;;;5060876;28;20025;-63
2023/03/18 10:04:17;;;;;;;2.53;1.17;;;18.60;48.60;;;;;;5057201;28;20590;-62
2023/03/18 10:06:46;;;;;;;2.05;0.90;;;18.70;45.60;;;;;;5047946;28;20026;-64
2023/03/18 10:09:19;;;;;;;4.47;0.93;;;18.90;48.00;;;;;;5050956;28;20046;-64
2023/03/18 10:11:50;;;;;;;1.95;0.90;;;19.00;47.00;;;;;;5055503;28;20085;-64
2023/03/18 10:14:38;;;;;;;1.25;0.70;;;19.10;47.30;;;;;;5053181;28;20029;-62
2023/03/18 10:17:29;;;;;;;2.40;1.10;;;19.30;46.00;;;;;;5064566;28;20450;-63
2023/03/18 10:20:03;;;;;;;3.00;0.82;;;19.30;45.30;;;;;;5060131;28;20044;-62
2023/03/18 10:23:23;;;;;;;2.28;0.82;;;19.40;45.50;;;;;;5067806;28;20033;-64
2023/03/18 10:25:57;;;;;;;4.65;0.98;;;19.50;44.20;;;;;;5045578;28;20067;-63
2023/03/18 10:28:45;;;;;;;4.43;0.85;;;19.60;44.30;;;;;;5047903;28;20045;-63
2023/03/18 10:31:32;;;;;;;3.15;1.17;;;19.70;44.00;;;;;;5042313;28;20135;-65
2023/03/18 10:34:03;;;;;;;1.42;0.90;;;19.80;43.80;;;;;;5039810;28;20056;-64
2023/03/18 10:36:31;;;;;;;3.65;0.77;;;19.90;45.30;;;;;;5040527;28;20038;-64
2023/03/18 10:39:11;;;;;;;1.48;0.88;;;20.00;43.80;;;;;;5035767;28;20025;-64
2023/03/18 10:41:38;;;;;;;3.30;0.90;;;20.10;43.30;;;;;;5040469;28;20069;-64
2023/03/18 10:44:13;;;;;;;3.85;1.00;;;20.10;44.00;;;;;;5051831;28;20106;-64
2023/03/18 10:46:42;;;;;;;3.38;1.10;;;20.20;42.80;;;;;;5036570;28;20522;-65
2023/03/18 10:49:22;;;;;;;2.83;1.20;;;20.30;44.00;;;;;;5045482;28;20085;-64
2023/03/18 10:52:06;;;;;;;3.55;1.00;;;20.40;42.00;;;;;;5039588;28;20028;-64
2023/03/18 10:54:39;;;;;;;2.27;1.10;;;20.50;40.70;;;;;;5033286;28;20045;-64
2023/03/18 10:57:05;;;;;;;2.58;1.10;;;20.60;42.70;;;;;;5035419;28;20036;-64
2023/03/18 10:59:33;;;;;;;2.92;1.15;;;20.60;42.70;;;;;;5048257;28;20042;-65
2023/03/18 11:02:03;;;;;;;1.83;1.23;;;20.70;42.60;;;;;;5061936;28;20032;-65
2023/03/18 11:04:37;;;;;;;2.65;1.00;;;20.70;41.90;;;;;;5066351;28;20039;-64
2023/03/18 11:07:06;;;;;;;2.88;0.85;;;20.80;42.40;;;;;;5061953;28;20056;-65
2023/03/18 11:09:35;;;;;;;4.97;0.98;;;20.80;42.50;;;;;;5064554;28;20048;-64
2023/03/18 11:12:13;;;;;;;4.45;1.00;;;20.90;42.50;;;;;;5058867;28;20049;-64
2023/03/18 11:14:39;;;;;;;3.33;0.98;;;21.00;41.50;;;;;;5061368;28;20028;-65
2023/03/18 11:17:26;;;;;;;3.60;1.08;;;21.10;42.00;;;;;;5059211;28;20025;-63
2023/03/18 11:20:16;;;;;;;2.67;1.33;;;21.20;40.30;;;;;;5058799;28;20041;-64
2023/03/18 11:22:50;;;;;;;4.72;1.50;;;21.20;40.60;;;;;;5064963;28;20032;-63
2023/03/18 11:25:24;;;;;;;4.22;1.38;;;21.30;40.10;;;;;;5068043;28;20037;-65
2023/03/18 11:27:56;;;;;;;3.10;1.30;;;21.30;40.30;;;;;;5064629;28;20033;-63
2023/03/18 11:30:24;;;;;;;3.20;1.38;;;21.40;41.20;;;;;;5065855;28;20097;-64
2023/03/18 11:32:57;;;;;;;3.17;1.63;;;21.40;40.30;;;;;;5071243;28;20024;-65
2023/03/18 11:35:59;;;;;;;1.20;0.98;;;21.40;40.00;;;;;;5065750;28;20089;-63
2023/03/18 11:38:30;;;;;;;2.30;1.17;;;21.50;39.60;;;;;;5048454;28;20030;-63
2023/03/18 11:41:13;;;;;;;3.22;1.50;;;21.60;40.90;;;;;;5060119;28;20017;-63
2023/03/18 11:44:04;;;;;;;2.72;1.15;;;21.60;39.30;;;;;;5057477;28;20056;-64
2023/03/18 11:47:05;;;;;;;3.22;1.27;;;21.70;38.60;;;;;;5062222;28;20017;-63
2023/03/18 11:49:31;;;;;;;6.43;1.73;;;21.80;40.20;;;;;;5015197;28;20033;-65
2023/03/18 11:52:14;;;;;;;1.95;1.60;;;21.90;40.20;;;;;;5017035;28;20030;-63
2023/03/18 11:55:01;;;;;;;3.38;1.33;;;21.90;37.60;;;;;;5014904;28;20141;-64
2023/03/18 11:57:43;;;;;;;2.58;1.65;;;22.00;39.20;;;;;;5012497;28;20057;-63
2023/03/18 12:00:24;;;;;;;3.47;1.90;;;22.10;39.30;;;;;;5014552;28;20038;-63
2023/03/18 12:03:08;;;;;;;4.55;2.00;;;22.20;38.30;;;;;;5013623;28;20099;-65
2023/03/18 12:05:52;;;;;;;4.70;1.60;;;22.20;38.70;;;;;;5015694;28;20057;-64
2023/03/18 12:08:42;;;;;;;3.70;1.80;;;22.30;38.60;;;;;;5012664;28;20033;-64
2023/03/18 12:11:15;;;;;;;4.75;1.60;;;22.30;39.00;;;;;;5019967;28;20080;-64
2023/03/18 12:14:13;;;;;;;4.00;1.67;;;22.40;39.30;;;;;;5015297;28;20041;-64
2023/03/18 12:16:53;;;;;;;2.40;1.65;;;22.40;37.40;;;;;;5015418;28;20038;-64
2023/03/18 12:19:57;;;;;;;5.72;1.85;;;22.50;37.70;;;;;;5013967;28;20101;-64
2023/03/18 12:22:44;;;;;;;2.83;1.33;;;22.60;37.60;;;;;;5013626;28;20069;-64
2023/03/18 12:25:29;;;;;;;3.67;1.52;;;22.70;38.30;;;;;;5056797;28;20045;-64
2023/03/18 12:28:06;;;;;;;2.80;1.60;;;22.70;36.60;;;;;;5065380;28;20017;-64
2023/03/18 12:30:59;;;;;;;2.88;1.55;;;22.80;37.60;;;;;;5059573;28;20047;-64
2023/03/18 12:33:56;;;;;;;7.53;2.65;;;22.80;36.60;;;;;;5056290;28;20041;-64
2023/03/18 12:36:58;;;;;;;4.07;2.25;;;22.90;35.60;;;;;;5048191;28;20060;-64
2023/03/18 12:39:57;;;;;;;2.58;1.40;;;22.90;36.40;;;;;;5001568;28;20550;-64
2023/03/18 12:42:28;;;;;;;1.73;1.10;;;23.00;35.80;;;;;;5058780;28;20099;-63
2023/03/18 12:45:02;;;;;;;3.13;1.20;;;23.10;36.40;;;;;;5063075;28;20036;-65
2023/03/18 12:47:32;;;;;;;2.95;1.48;;;23.20;35.70;;;;;;5056249;28;20028;-64
2023/03/18 12:50:05;;;;;;;5.00;1.27;;;23.30;35.90;;;;;;5053195;28;20058;-63
2023/03/18 12:52:44;;;;;;;1.95;1.30;;;23.40;35.20;;;;;;5057687;28;20035;-65
2023/03/18 12:55:31;;;;;;;2.22;1.40;;;23.50;34.80;;;;;;5059705;28;20476;-65
2023/03/18 12:58:02;;;;;;;4.03;1.70;;;23.60;34.40;;;;;;5064102;28;20024;-63
2023/03/18 13:00:38;;;;;;;4.30;1.50;;;23.60;34.50;;;;;;5063623;28;20383;-64
2023/03/18 13:03:16;;;;;;;3.38;1.30;;;23.60;33.50;;;;;;5058245;28;20021;-65
2023/03/18 13:05:56;;;;;;;2.00;1.40;;;23.60;32.60;;;;;;5053361;28;20029;-66